Terminal Aerodrome Forecast
Issued by NWS

Home | Current Version | Previous Version | Text Only | Print | Product List | Glossary On
Versions: 1 2 3 4 5 6 7 8 9 10 11 12 13 14 15 16 17 18 19 20 21 22 23 24 25 26 27 28
000
FTUS45 KGJT 211723
TAFCNY
TAF
KCNY 211723Z 2118/2218 11006KT P6SM OVC200
     FM211900 26010KT P6SM FEW110 OVC200
     FM220400 15004KT P6SM SCT110 OVC200
     FM221200 13007KT P6SM OVC200=

USA.gov is the U.S. government's official web portal to all federal, state and local government web resources and services.